createdAt,value
2023-03-25T05:54:50.394Z,1.50
2023-03-25T05:57:53.224Z,1.88
2023-03-25T06:00:58.721Z,1.83
2023-03-25T06:04:05.332Z,1.50
2023-03-25T06:07:23.794Z,1.50
2023-03-25T06:10:45.805Z,1.70
2023-03-25T06:17:30.566Z,1.65
2023-03-25T06:20:47.135Z,1.42
2023-03-25T06:24:11.647Z,1.83
2023-03-25T06:27:20.866Z,1.30
2023-03-25T06:30:24.001Z,1.00
2023-03-25T06:33:42.724Z,0.85
2023-03-25T06:36:50.157Z,1.20
2023-03-25T06:39:56.700Z,1.20
2023-03-25T06:43:02.779Z,1.83
2023-03-25T06:46:19.596Z,1.42
2023-03-25T06:49:39.292Z,1.67
2023-03-25T06:52:45.565Z,1.05
2023-03-25T06:55:49.145Z,1.50
2023-03-25T06:58:55.209Z,1.65
2023-03-25T07:02:01.729Z,1.50
2023-03-25T07:05:07.290Z,1.50
2023-03-25T07:08:12.061Z,1.90
2023-03-25T07:11:18.624Z,1.83
2023-03-25T07:14:27.059Z,1.60
2023-03-25T07:17:31.019Z,1.38
2023-03-25T07:20:46.669Z,1.73
2023-03-25T07:23:49.672Z,1.88
2023-03-25T07:26:55.702Z,1.58
2023-03-25T07:29:59.494Z,1.33
2023-03-25T07:33:01.962Z,1.08
2023-03-25T07:36:06.214Z,1.42
2023-03-25T07:39:08.774Z,1.70
2023-03-25T07:42:11.226Z,1.42
2023-03-25T07:45:15.725Z,1.27
2023-03-25T07:48:18.275Z,1.30
2023-03-25T07:51:20.748Z,1.38
2023-03-25T07:54:24.425Z,1.48
2023-03-25T07:57:26.981Z,1.42
2023-03-25T08:00:31.157Z,1.33
2023-03-25T08:03:35.077Z,1.77
2023-03-25T08:06:37.760Z,1.27
2023-03-25T08:09:42.138Z,1.45
2023-03-25T08:12:45.385Z,1.50
2023-03-25T08:15:49.700Z,1.08
2023-03-25T08:18:53.154Z,1.35
2023-03-25T08:21:55.994Z,1.08
2023-03-25T08:24:58.786Z,1.60
2023-03-25T08:28:01.260Z,1.48
2023-03-25T08:31:06.636Z,1.02
2023-03-25T08:34:09.102Z,1.00
2023-03-25T08:37:11.564Z,1.15
2023-03-25T08:40:14.257Z,1.05
2023-03-25T08:43:16.809Z,0.73
2023-03-25T08:46:20.726Z,1.30
2023-03-25T08:49:23.457Z,1.17
2023-03-25T08:52:27.457Z,1.42
2023-03-25T08:55:29.903Z,1.35
2023-03-25T08:58:32.393Z,1.02
2023-03-25T09:01:37.540Z,1.60
2023-03-25T09:04:40.864Z,1.05
2023-03-25T09:07:43.389Z,0.93
2023-03-25T09:10:46.166Z,1.20
2023-03-25T09:13:48.626Z,1.05
2023-03-25T09:16:52.386Z,1.30
2023-03-25T09:19:56.377Z,1.00
2023-03-25T09:23:00.177Z,1.45
2023-03-25T09:26:05.211Z,1.45
2023-03-25T09:29:07.673Z,1.08
2023-03-25T09:32:11.456Z,1.00
2023-03-25T09:35:14.052Z,0.73
2023-03-25T09:38:17.002Z,1.23
2023-03-25T09:41:31.592Z,1.10
2023-03-25T09:44:39.445Z,0.90
2023-03-25T09:47:53.323Z,1.23
2023-03-25T09:50:58.778Z,0.93
2023-03-25T09:54:05.396Z,1.00
2023-03-25T09:57:12.084Z,1.10
2023-03-25T10:00:19.665Z,0.80
2023-03-25T10:03:30.542Z,0.85
2023-03-25T10:06:39.005Z,1.27
2023-03-25T10:09:49.692Z,0.77
2023-03-25T10:13:04.375Z,0.85
2023-03-25T10:16:15.063Z,1.10
2023-03-25T10:19:39.306Z,0.63
2023-03-25T10:22:57.071Z,0.68
2023-03-25T10:26:06.668Z,0.77
2023-03-25T10:29:14.151Z,1.02
2023-03-25T10:32:18.858Z,1.17
2023-03-25T10:35:27.122Z,0.60
2023-03-25T10:38:33.763Z,1.00
2023-03-25T10:41:39.717Z,1.10
2023-03-25T10:44:43.538Z,1.13
2023-03-25T10:47:48.407Z,0.95
2023-03-25T10:50:54.298Z,1.02
2023-03-25T10:53:57.347Z,1.20
2023-03-25T10:57:02.949Z,1.00
2023-03-25T11:00:14.694Z,1.00
2023-03-25T11:03:21.143Z,0.68
2023-03-25T11:06:29.707Z,0.80
2023-03-25T11:09:36.724Z,0.90
2023-03-25T11:12:43.315Z,0.85
2023-03-25T11:15:46.098Z,0.73
2023-03-25T11:18:48.773Z,0.52
2023-03-25T11:21:56.404Z,0.70
2023-03-25T11:25:01.758Z,0.65
2023-03-25T11:28:10.641Z,0.60
2023-03-25T11:31:16.759Z,1.02
2023-03-25T11:34:21.568Z,1.15
2023-03-25T11:37:26.278Z,0.88
2023-03-25T11:40:31.122Z,0.93
2023-03-25T11:43:36.682Z,0.75
2023-03-25T11:46:44.082Z,0.98
2023-03-25T11:49:50.317Z,1.00
2023-03-25T11:52:57.397Z,0.75
2023-03-25T11:56:04.447Z,0.85
2023-03-25T11:59:11.932Z,0.98
2023-03-25T12:02:24.549Z,1.13
2023-03-25T12:05:27.065Z,0.80
2023-03-25T12:08:42.470Z,1.23
2023-03-25T12:11:55.502Z,1.02
2023-03-25T12:15:12.329Z,0.90
2023-03-25T12:18:31.954Z,1.00
2023-03-25T12:21:49.549Z,0.90
2023-03-25T12:25:08.075Z,0.77
2023-03-25T12:28:31.211Z,0.70
2023-03-25T12:31:47.099Z,0.75
2023-03-25T12:35:00.317Z,0.77
2023-03-25T12:38:20.606Z,0.90
2023-03-25T12:41:33.653Z,1.00
2023-03-25T12:44:49.879Z,1.00
2023-03-25T12:47:57.267Z,1.05
2023-03-25T12:51:10.933Z,0.98
2023-03-25T12:54:31.194Z,1.17
2023-03-25T12:57:49.258Z,0.80
2023-03-25T13:01:01.302Z,0.85
2023-03-25T13:04:26.421Z,0.95
2023-03-25T13:07:35.416Z,1.00
2023-03-25T13:10:41.786Z,0.68
2023-03-25T13:13:49.479Z,0.95
2023-03-25T13:16:55.710Z,0.57
2023-03-25T13:20:01.897Z,0.60
2023-03-25T13:23:07.797Z,0.68
2023-03-25T13:26:12.821Z,0.63
2023-03-25T13:29:27.697Z,0.55
2023-03-25T13:32:36.427Z,0.82
2023-03-25T13:35:46.010Z,0.80
2023-03-25T13:38:52.934Z,0.80
2023-03-25T13:42:00.981Z,0.68
2023-03-25T13:45:07.433Z,0.60
2023-03-25T13:48:17.774Z,0.70
2023-03-25T13:51:21.168Z,0.80
2023-03-25T13:54:28.006Z,0.52
2023-03-25T13:58:09.122Z,0.65
2023-03-25T14:01:37.173Z,0.70
2023-03-25T14:05:11.653Z,0.80
2023-03-25T14:08:35.439Z,1.05
2023-03-25T14:11:44.972Z,0.85
2023-03-25T14:14:51.394Z,1.25
2023-03-25T14:17:56.248Z,1.13
2023-03-25T14:20:59.413Z,1.20
2023-03-25T14:24:06.136Z,1.20
2023-03-25T14:27:17.874Z,1.10
2023-03-25T14:30:23.269Z,1.40
2023-03-25T14:33:27.064Z,1.33
2023-03-25T14:36:30.295Z,1.13
2023-03-25T14:39:39.751Z,1.50
2023-03-25T14:42:57.377Z,1.30
2023-03-25T14:46:18.408Z,1.65
2023-03-25T14:49:30.127Z,1.30
2023-03-25T14:52:34.481Z,1.33
2023-03-25T14:55:42.943Z,1.30
2023-03-25T14:58:45.949Z,1.05
2023-03-25T15:01:49.041Z,0.90
2023-03-25T15:04:59.400Z,1.08
2023-03-25T15:08:14.340Z,0.98
2023-03-25T15:11:19.175Z,1.20
2023-03-25T15:14:25.513Z,1.20
2023-03-25T15:17:44.331Z,0.93
2023-03-25T15:20:48.112Z,1.20
2023-03-25T15:23:53.545Z,1.00
2023-03-25T15:26:58.038Z,1.17
2023-03-25T15:30:09.489Z,1.02
2023-03-25T15:33:24.561Z,1.30
2023-03-25T15:36:45.717Z,0.93
2023-03-25T15:40:01.654Z,0.90
2023-03-25T15:43:25.827Z,0.60
2023-03-25T15:46:40.890Z,0.88
2023-03-25T15:50:25.774Z,1.15
2023-03-25T15:53:50.972Z,1.70
2023-03-25T15:56:58.046Z,1.15
2023-03-25T16:00:11.826Z,1.00
2023-03-25T16:03:17.242Z,0.93
2023-03-25T16:06:21.732Z,0.80
2023-03-25T16:09:28.832Z,3.13
2023-03-25T16:12:31.637Z,1.98
2023-03-25T16:15:37.115Z,1.70
2023-03-25T16:18:41.311Z,0.70
2023-03-25T16:21:44.017Z,1.00
2023-03-25T16:24:50.212Z,1.67
2023-03-25T16:27:56.048Z,1.60
2023-03-25T16:30:58.620Z,1.55
2023-03-25T16:34:01.432Z,1.33
2023-03-25T16:37:05.523Z,1.40
2023-03-25T16:40:15.876Z,2.33
2023-03-25T16:43:21.682Z,1.40
2023-03-25T16:46:24.844Z,1.20
2023-03-25T16:49:30.972Z,1.40
2023-03-25T16:52:35.517Z,1.30
2023-03-25T16:55:48.887Z,1.23
2023-03-25T16:58:58.517Z,1.27
2023-03-25T17:02:02.762Z,1.65
2023-03-25T17:05:16.167Z,1.50
2023-03-25T17:08:21.565Z,1.50
2023-03-25T17:11:29.018Z,1.10
2023-03-25T17:19:08.096Z,1.35
2023-03-25T17:22:17.612Z,1.55
2023-03-25T17:25:30.390Z,1.27
2023-03-25T17:28:44.284Z,1.50
2023-03-25T17:31:56.289Z,1.90
2023-03-25T17:35:25.469Z,2.08
2023-03-25T17:38:35.950Z,1.05
2023-03-25T18:26:08.653Z,0.85
2023-03-25T18:29:30.327Z,1.50
2023-03-25T18:32:37.493Z,2.08
2023-03-25T18:35:55.906Z,2.05
2023-03-25T18:39:00.860Z,1.70
2023-03-25T18:42:07.428Z,1.45
2023-03-25T18:45:30.167Z,2.10
2023-03-25T18:48:34.708Z,1.58
2023-03-25T18:51:45.124Z,1.88
2023-03-25T18:54:51.677Z,2.97
2023-03-25T18:58:12.262Z,1.75
2023-03-25T19:01:18.812Z,1.90
2023-03-25T19:04:22.869Z,1.45
2023-03-25T19:07:34.650Z,2.63
